Aviation Digital Data Service (ADDS)

Output produced by METARs form (2146 UTC 24 March 2019)
found at http://www.aviationweather.gov/metar/data/
 
Forecast for: LFKJ (AJACCIO/CAMPO OR, FR)
Text: TAF LFKJ 242000Z 2421/2521 05004KT CAVOK
Forecast period: 2100 UTC 24 March 2019 to 0700 UTC 25 March 2019
Forecast type: FROM: standard forecast or significant change
Winds: from the NE (50 degrees) at 5 MPH (4 knots; 2.1 m/s)
Visibility: 6 or more miles 10+ km)
Ceiling: unknown
Clouds: missing
Weather: NSW  (no significant weather)
Text: TEMPO 2421/2507 4000 BR
Forecast period: 2100 UTC 24 March 2019 to 0700 UTC 25 March 2019
Forecast type: TEMPORARY: The following changes expected for less than half the time period
Visibility: 2.49 miles (4.01 km)
Ceiling: unknown
Clouds: missing
Weather: BR  (mist)
Text: BECMG 2507/2509 23010KT
Forecast period: 0700 to 1700 UTC 25 March 2019
Forecast type: BECOMING: Conditions expected to become as follows by 0900 UTC 25 March 2019
Winds: from the SW (230 degrees) at 12 MPH (10 knots; 5.1 m/s)
Visibility: 6 or more miles 10+ km)
Ceiling: unknown
Clouds: missing
Weather: NSW  (no significant weather)
Text: BECMG 2517/2519 09008KT
Forecast period: 1700 to 2100 UTC 25 March 2019
Forecast type: BECOMING: Conditions expected to become as follows by 1900 UTC 25 March 2019
Winds: from the E (90 degrees) at 9 MPH (8 knots; 4.1 m/s)
Visibility: 6 or more miles 10+ km)
Ceiling: unknown
Clouds: missing
Weather: NSW  (no significant weather)